createdAt,value
2019-02-27T00:01:53.522Z,94.80
2019-02-27T00:04:22.014Z,94.80
2019-02-27T00:06:49.636Z,94.90
2019-02-27T00:09:17.230Z,94.90
2019-02-27T00:11:46.774Z,94.90
2019-02-27T00:14:14.174Z,95.00
2019-02-27T00:19:02.120Z,95.20
2019-02-27T00:21:29.709Z,95.30
2019-02-27T00:23:57.413Z,95.40
2019-02-27T00:26:24.858Z,95.40
2019-02-27T00:28:55.959Z,95.50
2019-02-27T00:31:21.798Z,95.60
2019-02-27T00:33:49.299Z,95.60
2019-02-27T00:36:16.638Z,95.70
2019-02-27T00:38:44.171Z,95.80
2019-02-27T00:41:12.871Z,95.50
2019-02-27T00:43:40.750Z,95.50
2019-02-27T00:46:10.711Z,95.50
2019-02-27T00:48:37.722Z,95.60
2019-02-27T00:51:05.095Z,95.70
2019-02-27T00:53:32.458Z,95.80
2019-02-27T00:55:59.911Z,95.90
2019-02-27T00:58:27.649Z,96.10
2019-02-27T01:00:55.306Z,96.20
2019-02-27T01:03:26.000Z,96.30
2019-02-27T01:05:52.270Z,96.30
2019-02-27T01:08:19.641Z,96.40
2019-02-27T01:10:47.204Z,96.40
2019-02-27T01:13:14.760Z,96.50
2019-02-27T01:15:44.655Z,96.60
2019-02-27T01:18:11.941Z,96.80
2019-02-27T01:20:39.568Z,96.80
2019-02-27T01:23:10.860Z,96.80
2019-02-27T01:25:36.407Z,96.70
2019-02-27T01:28:04.054Z,96.80
2019-02-27T01:30:31.593Z,96.70
2019-02-27T01:32:59.077Z,96.70
2019-02-27T01:35:27.212Z,97.10
2019-02-27T01:37:54.776Z,96.80
2019-02-27T01:40:22.361Z,96.80
2019-02-27T01:42:49.856Z,96.80
2019-02-27T01:45:20.829Z,96.70
2019-02-27T01:47:47.100Z,96.70
2019-02-27T01:50:37.488Z,96.80
2019-02-27T01:53:07.319Z,97.00
2019-02-27T01:55:36.052Z,96.90
2019-02-27T01:58:03.878Z,96.90
2019-02-27T02:00:31.536Z,96.90
2019-02-27T02:02:59.260Z,97.00
2019-02-27T02:05:27.468Z,97.00
2019-02-27T02:07:56.364Z,97.10
2019-02-27T02:10:28.016Z,97.20
2019-02-27T02:13:19.887Z,97.20
2019-02-27T02:16:59.600Z,97.10
2019-02-27T02:20:21.379Z,97.10
2019-02-27T02:23:37.245Z,97.20
2019-02-27T02:26:53.445Z,97.20
2019-02-27T02:30:29.848Z,97.10
2019-02-27T02:34:08.973Z,97.10
2019-02-27T02:37:52.960Z,97.10
2019-02-27T02:40:54.268Z,97.10
2019-02-27T02:44:20.709Z,97.10
2019-02-27T02:47:29.010Z,97.20
2019-02-27T02:50:21.769Z,97.40
2019-02-27T02:53:38.522Z,97.50
2019-02-27T02:56:39.388Z,97.60
2019-02-27T02:59:59.505Z,97.70
2019-02-27T03:02:34.047Z,97.70
2019-02-27T03:05:30.787Z,97.80
2019-02-27T03:08:25.042Z,97.80
2019-02-27T03:11:45.811Z,97.80
2019-02-27T03:14:25.907Z,97.80
2019-02-27T03:17:56.162Z,97.80
2019-02-27T03:21:17.666Z,97.80
2019-02-27T03:24:28.964Z,97.80
2019-02-27T03:27:47.162Z,97.90
2019-02-27T03:31:18.100Z,97.90
2019-02-27T03:34:52.100Z,98.00
2019-02-27T03:37:48.599Z,98.10
2019-02-27T03:41:23.617Z,98.10
2019-02-27T03:44:59.308Z,98.20
2019-02-27T03:47:51.641Z,98.30
2019-02-27T03:51:38.945Z,98.30
2019-02-27T03:54:24.121Z,98.30
2019-02-27T03:57:31.699Z,98.30
2019-02-27T04:00:54.574Z,98.30
2019-02-27T04:04:29.615Z,98.40
2019-02-27T04:07:32.743Z,98.40
2019-02-27T04:10:00.284Z,98.50
2019-02-27T04:12:27.807Z,98.60
2019-02-27T04:14:55.256Z,98.50
2019-02-27T04:17:28.074Z,98.60
2019-02-27T04:19:56.394Z,98.80
2019-02-27T04:22:23.937Z,98.70
2019-02-27T04:24:56.423Z,98.70
2019-02-27T04:27:21.457Z,98.70
2019-02-27T04:29:49.737Z,98.70
2019-02-27T04:32:17.992Z,98.80
2019-02-27T04:34:45.551Z,98.70
2019-02-27T04:37:12.987Z,98.80
2019-02-27T04:39:40.396Z,98.80
2019-02-27T04:42:07.874Z,98.80
2019-02-27T04:44:35.906Z,98.70
2019-02-27T04:47:04.707Z,98.80
2019-02-27T04:49:34.813Z,98.80
2019-02-27T04:52:03.112Z,98.90
2019-02-27T04:54:30.566Z,98.80
2019-02-27T04:56:58.170Z,98.90
2019-02-27T04:59:25.783Z,98.90
2019-02-27T05:01:53.363Z,98.90
2019-02-27T05:04:20.964Z,99.00
2019-02-27T05:06:48.358Z,99.00
2019-02-27T05:09:15.924Z,99.00
2019-02-27T05:11:47.520Z,99.00
2019-02-27T05:14:12.729Z,99.00
2019-02-27T05:16:40.252Z,99.00
2019-02-27T05:19:07.755Z,99.00
2019-02-27T05:21:35.266Z,99.40
2019-02-27T05:24:05.262Z,99.10
2019-02-27T05:26:32.150Z,99.20
2019-02-27T05:28:59.656Z,99.30
2019-02-27T05:31:27.246Z,99.30
2019-02-27T05:33:54.649Z,99.30
2019-02-27T05:36:22.135Z,99.40
2019-02-27T05:38:49.556Z,99.40
2019-02-27T05:41:17.038Z,99.40
2019-02-27T05:43:47.604Z,99.40
2019-02-27T05:46:15.111Z,99.50
2019-02-27T05:48:42.649Z,99.50
2019-02-27T05:51:11.430Z,99.60
2019-02-27T05:53:40.297Z,99.60
2019-02-27T05:57:47.535Z,99.60
2019-02-27T06:00:16.352Z,99.70
2019-02-27T06:02:45.016Z,99.70
2019-02-27T06:05:13.648Z,99.70
2019-02-27T06:07:41.453Z,99.60
2019-02-27T06:10:12.091Z,99.80
2019-02-27T06:12:40.751Z,99.70
2019-02-27T06:15:12.530Z,99.70
2019-02-27T06:17:43.406Z,99.70
2019-02-27T06:20:09.835Z,99.60
2019-02-27T06:22:37.364Z,99.50
2019-02-27T06:25:05.984Z,99.70
2019-02-27T06:27:33.610Z,99.50
2019-02-27T06:30:01.194Z,99.60
2019-02-27T06:32:28.724Z,99.40
2019-02-27T06:34:59.283Z,99.40
2019-02-27T06:37:25.896Z,99.40
2019-02-27T06:39:54.200Z,99.80
2019-02-27T06:42:23.094Z,99.50
2019-02-27T06:44:50.720Z,99.40
2019-02-27T06:47:18.612Z,99.30
2019-02-27T06:49:46.114Z,99.40
2019-02-27T06:52:13.422Z,99.10
2019-02-27T06:54:41.216Z,99.00
2019-02-27T06:57:08.885Z,98.90
2019-02-27T06:59:36.987Z,98.30
2019-02-27T07:02:04.506Z,98.00
2019-02-27T07:04:31.861Z,97.20
2019-02-27T07:07:00.617Z,96.60
2019-02-27T07:09:28.212Z,96.10
2019-02-27T07:11:55.537Z,95.30
2019-02-27T07:14:22.957Z,94.40
2019-02-27T07:16:51.645Z,93.40
2019-02-27T07:22:55.509Z,91.30
2019-02-27T07:25:22.967Z,89.30
2019-02-27T07:27:50.417Z,88.90
2019-02-27T07:30:18.051Z,87.20
2019-02-27T07:32:45.693Z,85.00
2019-02-27T07:35:13.695Z,82.40
2019-02-27T07:37:41.388Z,80.00
2019-02-27T07:40:11.426Z,79.00
2019-02-27T07:42:38.767Z,77.20
2019-02-27T07:45:08.129Z,75.60
2019-02-27T07:47:37.102Z,72.20
2019-02-27T07:50:08.702Z,70.80
2019-02-27T07:52:36.321Z,69.40
2019-02-27T07:55:15.581Z,68.30
2019-02-27T07:57:37.994Z,67.20
2019-02-27T08:00:15.006Z,66.30
2019-02-27T08:02:41.871Z,64.10
2019-02-27T08:05:09.430Z,60.50
2019-02-27T08:07:36.930Z,57.70
2019-02-27T08:10:06.831Z,56.70
2019-02-27T08:12:34.359Z,54.30
2019-02-27T08:15:01.915Z,53.60
2019-02-27T08:17:33.530Z,51.10
2019-02-27T08:20:00.898Z,49.70
2019-02-27T08:22:31.455Z,48.90
2019-02-27T08:24:58.791Z,47.40
2019-02-27T08:27:26.408Z,45.40
2019-02-27T08:29:53.771Z,43.80
2019-02-27T08:32:21.361Z,42.80
2019-02-27T08:34:50.771Z,42.00
2019-02-27T08:37:20.243Z,40.40
2019-02-27T08:39:47.913Z,39.60
2019-02-27T08:42:15.821Z,39.30
2019-02-27T08:44:45.796Z,38.70
2019-02-27T08:47:12.741Z,37.60
2019-02-27T08:49:40.368Z,37.80
2019-02-27T08:52:08.544Z,37.50
2019-02-27T08:54:36.363Z,37.30
2019-02-27T08:57:04.431Z,38.00
2019-02-27T08:59:33.658Z,37.80
2019-02-27T09:02:01.088Z,38.50
2019-02-27T09:04:28.832Z,37.30
2019-02-27T09:07:02.112Z,36.30
2019-02-27T09:09:25.905Z,36.20
2019-02-27T09:11:53.396Z,37.90
2019-02-27T09:14:20.732Z,40.40
2019-02-27T09:16:48.383Z,43.40
2019-02-27T09:19:15.869Z,45.70
2019-02-27T09:21:43.291Z,46.20
2019-02-27T09:24:11.161Z,47.00
2019-02-27T09:26:38.574Z,48.20
2019-02-27T09:29:06.178Z,48.30
2019-02-27T09:31:34.776Z,50.00
2019-02-27T09:34:03.749Z,51.60
2019-02-27T09:36:31.344Z,53.10
2019-02-27T09:38:59.586Z,53.60
2019-02-27T09:41:27.296Z,54.80
2019-02-27T09:43:54.952Z,56.50
2019-02-27T09:46:22.785Z,58.10
2019-02-27T09:48:50.576Z,59.60
2019-02-27T09:51:19.146Z,60.30
2019-02-27T09:53:49.359Z,58.10
2019-02-27T09:56:16.963Z,53.00
2019-02-27T09:58:45.558Z,45.90
2019-02-27T10:01:16.615Z,42.20
2019-02-27T10:03:44.330Z,39.40
2019-02-27T10:06:11.920Z,37.20
2019-02-27T10:08:39.586Z,37.50
2019-02-27T10:11:07.538Z,35.80
2019-02-27T10:13:35.498Z,34.30
2019-02-27T10:16:04.544Z,33.30
2019-02-27T10:18:31.989Z,33.20
2019-02-27T10:20:59.794Z,33.60
2019-02-27T10:23:30.435Z,31.90
2019-02-27T10:25:56.695Z,30.80
2019-02-27T10:28:24.528Z,30.30
2019-02-27T10:30:52.151Z,29.50
2019-02-27T10:33:21.503Z,28.80
2019-02-27T10:35:52.177Z,28.40
2019-02-27T10:38:19.805Z,27.80
2019-02-27T10:40:47.489Z,27.30
2019-02-27T10:43:14.901Z,26.80
2019-02-27T10:45:42.458Z,26.10
2019-02-27T10:48:12.593Z,25.40
2019-02-27T10:50:39.640Z,25.20
2019-02-27T10:53:07.278Z,24.60
2019-02-27T10:55:34.890Z,24.70
2019-02-27T10:58:02.978Z,24.10
2019-02-27T11:00:35.381Z,24.40
2019-02-27T11:03:03.248Z,23.70
2019-02-27T11:05:34.469Z,23.50
2019-02-27T11:08:03.383Z,23.20
2019-02-27T11:10:31.311Z,23.10
2019-02-27T11:13:05.522Z,22.80
2019-02-27T11:15:30.721Z,22.60
2019-02-27T11:18:04.208Z,22.50
2019-02-27T11:20:27.986Z,22.60
2019-02-27T11:22:57.403Z,22.60
2019-02-27T11:25:26.814Z,22.10
2019-02-27T11:27:55.634Z,21.80
2019-02-27T11:30:35.953Z,21.90
2019-02-27T11:33:02.112Z,21.60
2019-02-27T11:35:31.866Z,21.70
2019-02-27T11:37:59.449Z,21.80
2019-02-27T11:40:32.237Z,21.60
2019-02-27T11:43:01.110Z,21.30
2019-02-27T11:45:29.109Z,21.60
2019-02-27T11:47:57.207Z,21.50
2019-02-27T11:50:25.001Z,21.40
2019-02-27T11:52:52.702Z,21.20
2019-02-27T11:55:20.327Z,21.20
2019-02-27T11:57:47.992Z,21.20
2019-02-27T12:00:21.334Z,21.70
2019-02-27T12:02:48.941Z,21.60
2019-02-27T12:05:16.536Z,21.60
2019-02-27T12:07:50.685Z,21.90
2019-02-27T12:10:20.599Z,22.30
2019-02-27T12:12:48.049Z,22.10
2019-02-27T12:15:17.624Z,21.90
2019-02-27T12:17:47.030Z,22.00
2019-02-27T12:20:18.249Z,21.40
2019-02-27T12:22:46.097Z,21.50
2019-02-27T12:25:14.172Z,21.30
2019-02-27T12:27:49.182Z,21.00
2019-02-27T12:30:17.987Z,21.00
2019-02-27T12:32:45.671Z,20.80
2019-02-27T12:35:17.061Z,20.80
2019-02-27T12:37:45.650Z,21.00
2019-02-27T12:40:15.661Z,21.50
2019-02-27T12:42:46.202Z,21.40
2019-02-27T12:45:17.097Z,22.10
2019-02-27T12:47:44.837Z,21.30
2019-02-27T12:50:15.169Z,21.30
2019-02-27T12:52:44.781Z,21.10
2019-02-27T12:55:12.896Z,21.80
2019-02-27T12:57:40.548Z,22.60
2019-02-27T13:00:14.658Z,22.90
2019-02-27T13:02:42.386Z,23.70
2019-02-27T13:05:12.501Z,24.90
2019-02-27T13:07:42.129Z,26.60
2019-02-27T13:10:13.774Z,27.70
2019-02-27T13:12:41.379Z,29.20
2019-02-27T13:15:11.937Z,29.70
2019-02-27T13:17:39.652Z,30.60
2019-02-27T13:20:12.514Z,31.60
2019-02-27T13:22:40.898Z,31.60
2019-02-27T13:25:08.639Z,31.10
2019-02-27T13:27:36.411Z,29.40
2019-02-27T13:30:09.241Z,28.70
2019-02-27T13:32:37.151Z,27.40
2019-02-27T13:35:05.457Z,26.00
2019-02-27T13:37:33.049Z,25.40
2019-02-27T13:40:01.355Z,25.70
2019-02-27T13:42:31.211Z,26.60
2019-02-27T13:44:59.468Z,27.90
2019-02-27T13:47:28.661Z,29.90
2019-02-27T13:50:01.018Z,32.00
2019-02-27T13:52:31.013Z,33.90
2019-02-27T13:55:00.891Z,35.70
2019-02-27T13:57:34.284Z,37.30
2019-02-27T14:00:02.495Z,38.80
2019-02-27T14:02:31.312Z,39.90
2019-02-27T14:05:01.242Z,41.60
2019-02-27T14:07:31.269Z,42.80
2019-02-27T14:09:59.067Z,43.60
2019-02-27T14:12:26.457Z,44.10
2019-02-27T14:14:55.902Z,45.20
2019-02-27T14:17:24.730Z,45.50
2019-02-27T14:22:46.111Z,46.10
2019-02-27T14:25:17.537Z,46.70
2019-02-27T14:27:47.560Z,47.20
2019-02-27T14:30:24.759Z,46.90
2019-02-27T14:32:52.869Z,45.50
2019-02-27T14:35:22.170Z,44.70
2019-02-27T14:37:51.205Z,43.80
2019-02-27T14:40:20.599Z,41.80
2019-02-27T14:42:54.019Z,39.70
2019-02-27T14:45:20.869Z,39.30
2019-02-27T14:47:50.992Z,39.90
2019-02-27T14:50:22.016Z,40.40
2019-02-27T14:52:50.828Z,42.80
2019-02-27T14:55:20.409Z,43.40
2019-02-27T14:57:51.148Z,44.60
2019-02-27T15:00:24.805Z,46.00
2019-02-27T15:02:55.588Z,47.20
2019-02-27T15:05:24.791Z,48.10
2019-02-27T15:07:53.550Z,49.20
2019-02-27T15:10:23.192Z,50.00
2019-02-27T15:12:55.136Z,50.80
2019-02-27T15:15:27.414Z,51.40
2019-02-27T15:17:58.287Z,52.10
2019-02-27T15:20:26.333Z,53.30
2019-02-27T15:22:54.066Z,54.10
2019-02-27T15:25:22.328Z,54.70
2019-02-27T15:27:49.793Z,55.40
2019-02-27T15:30:20.127Z,57.00
2019-02-27T15:32:48.009Z,57.40
2019-02-27T15:35:20.862Z,57.90
2019-02-27T15:37:48.263Z,58.60
2019-02-27T15:40:19.748Z,59.30
2019-02-27T15:42:48.469Z,60.00
2019-02-27T15:45:19.976Z,61.20
2019-02-27T15:47:49.103Z,61.90
2019-02-27T15:50:22.427Z,62.70
2019-02-27T15:52:49.304Z,63.60
2019-02-27T15:55:17.245Z,64.60
2019-02-27T15:57:45.343Z,66.10
2019-02-27T16:00:18.487Z,66.30
2019-02-27T16:02:46.732Z,66.70
2019-02-27T16:05:15.088Z,67.70
2019-02-27T16:07:48.480Z,68.70
2019-02-27T16:10:15.694Z,69.90
2019-02-27T16:12:43.683Z,70.70
2019-02-27T16:15:11.415Z,71.80
2019-02-27T16:17:39.484Z,72.80
2019-02-27T16:20:11.253Z,73.40
2019-02-27T16:22:38.886Z,74.60
2019-02-27T16:25:08.260Z,75.50
2019-02-27T16:27:38.649Z,76.30
2019-02-27T16:30:07.610Z,77.30
2019-02-27T16:32:36.684Z,77.80
2019-02-27T16:35:07.852Z,78.40
2019-02-27T16:37:34.969Z,79.10
2019-02-27T16:40:05.534Z,80.20
2019-02-27T16:42:33.006Z,80.70
2019-02-27T16:45:00.569Z,81.10
2019-02-27T16:47:28.239Z,81.30
2019-02-27T16:49:55.996Z,82.00
2019-02-27T16:52:24.803Z,82.90
2019-02-27T16:54:54.082Z,83.10
2019-02-27T16:57:24.451Z,83.60
2019-02-27T16:59:51.652Z,84.00
2019-02-27T17:02:19.192Z,84.60
2019-02-27T17:04:49.643Z,84.60
2019-02-27T17:07:17.303Z,85.20
2019-02-27T17:09:45.057Z,85.20
2019-02-27T17:12:12.937Z,85.50
2019-02-27T17:14:41.706Z,85.60
2019-02-27T17:17:19.542Z,86.90
2019-02-27T17:19:47.232Z,86.20
2019-02-27T17:22:14.675Z,86.20
2019-02-27T17:24:42.526Z,86.50
2019-02-27T17:27:31.245Z,87.80
2019-02-27T17:30:00.052Z,87.60
2019-02-27T17:32:30.359Z,87.60
2019-02-27T17:34:59.100Z,88.30
2019-02-27T17:37:26.788Z,87.90
2019-02-27T17:39:55.511Z,88.10
2019-02-27T17:42:23.273Z,88.20
2019-02-27T17:44:50.784Z,88.50
2019-02-27T17:47:20.307Z,88.10
2019-02-27T17:49:48.240Z,87.80
2019-02-27T17:52:16.441Z,87.60
2019-02-27T17:54:46.088Z,87.20
2019-02-27T17:57:13.658Z,86.80
2019-02-27T17:59:44.683Z,86.50
2019-02-27T18:02:12.522Z,86.30
2019-02-27T18:04:53.852Z,86.00
2019-02-27T18:07:22.803Z,86.20
2019-02-27T18:09:50.768Z,86.40
2019-02-27T18:12:18.265Z,86.00
2019-02-27T18:14:46.939Z,86.00
2019-02-27T18:17:15.195Z,86.10
2019-02-27T18:19:50.122Z,86.50
2019-02-27T18:22:18.337Z,87.30
2019-02-27T18:24:46.523Z,86.70
2019-02-27T18:27:14.229Z,87.00
2019-02-27T18:29:43.704Z,87.10
2019-02-27T18:32:12.147Z,87.10
2019-02-27T18:34:44.001Z,87.30
2019-02-27T18:37:20.022Z,87.60
2019-02-27T18:39:48.546Z,88.00
2019-02-27T18:42:20.299Z,88.60
2019-02-27T18:44:45.615Z,88.50
2019-02-27T18:47:18.675Z,89.10
2019-02-27T18:49:53.378Z,88.80
2019-02-27T18:52:33.382Z,89.00
2019-02-27T18:55:01.307Z,89.00
2019-02-27T18:57:30.497Z,89.10
2019-02-27T19:00:02.353Z,89.30
2019-02-27T19:05:30.603Z,89.80
2019-02-27T19:07:58.536Z,90.00
2019-02-27T19:10:33.311Z,89.70
2019-02-27T19:13:01.245Z,89.40
2019-02-27T19:15:32.722Z,89.20
2019-02-27T19:18:03.683Z,89.60
2019-02-27T19:20:34.816Z,90.00
2019-02-27T19:23:02.555Z,90.30
2019-02-27T19:25:40.036Z,90.20
2019-02-27T19:28:12.341Z,90.30
2019-02-27T19:30:41.858Z,90.60
2019-02-27T19:33:12.148Z,90.30
2019-02-27T19:35:39.934Z,90.70
2019-02-27T19:38:16.656Z,90.30
2019-02-27T19:40:45.855Z,90.40
2019-02-27T19:43:14.391Z,90.50
2019-02-27T19:45:42.487Z,90.60
2019-02-27T19:48:11.760Z,90.80
2019-02-27T19:50:44.969Z,91.00
2019-02-27T19:53:12.281Z,91.10
2019-02-27T19:55:40.070Z,91.60
2019-02-27T19:58:17.152Z,91.60
2019-02-27T20:00:48.481Z,91.60
2019-02-27T20:03:13.798Z,91.70
2019-02-27T20:05:41.480Z,91.90
2019-02-27T20:08:10.810Z,91.90
2019-02-27T20:10:39.735Z,92.00
2019-02-27T20:13:16.131Z,92.20
2019-02-27T20:15:46.668Z,92.30
2019-02-27T20:18:15.411Z,92.30
2019-02-27T20:20:43.516Z,92.40
2019-02-27T20:23:11.047Z,92.30
2019-02-27T20:25:42.955Z,92.50
2019-02-27T20:28:09.141Z,92.70
2019-02-27T20:30:37.278Z,92.70
2019-02-27T20:33:05.878Z,92.70
2019-02-27T20:35:33.722Z,92.70
2019-02-27T20:38:01.705Z,92.80
2019-02-27T20:40:33.756Z,92.90
2019-02-27T20:42:58.973Z,93.10
2019-02-27T20:45:26.826Z,93.80
2019-02-27T20:48:00.493Z,93.50
2019-02-27T20:50:35.305Z,93.60
2019-02-27T20:53:03.257Z,93.80
2019-02-27T20:55:31.907Z,93.70
2019-02-27T20:57:59.544Z,93.70
2019-02-27T21:00:28.190Z,93.70
2019-02-27T21:02:55.713Z,93.80
2019-02-27T21:05:23.327Z,93.80
2019-02-27T21:07:50.918Z,93.70
2019-02-27T21:10:21.096Z,93.80
2019-02-27T21:12:54.050Z,94.00
2019-02-27T21:15:19.136Z,94.20
2019-02-27T21:17:46.832Z,94.30
2019-02-27T21:20:16.605Z,94.60
2019-02-27T21:22:44.231Z,94.60
2019-02-27T21:25:14.934Z,94.70
2019-02-27T21:27:43.021Z,94.80
2019-02-27T21:30:17.849Z,94.90
2019-02-27T21:32:43.081Z,95.00
2019-02-27T21:35:10.907Z,95.20
2019-02-27T21:37:44.603Z,95.50
2019-02-27T21:40:11.389Z,95.30
2019-02-27T21:42:41.495Z,95.30
2019-02-27T21:45:12.599Z,95.50
2019-02-27T21:47:41.239Z,95.50
2019-02-27T21:50:11.376Z,95.50
2019-02-27T21:52:43.621Z,95.40
2019-02-27T21:55:13.018Z,95.40
2019-02-27T21:57:40.985Z,95.70
2019-02-27T22:00:13.998Z,95.40
2019-02-27T22:02:43.144Z,95.40
2019-02-27T22:05:10.772Z,95.50
2019-02-27T22:07:38.333Z,95.80
2019-02-27T22:10:09.709Z,95.70
2019-02-27T22:12:37.262Z,95.70
2019-02-27T22:15:12.477Z,95.60
2019-02-27T22:17:39.796Z,95.80
2019-02-27T22:20:09.744Z,95.60
2019-02-27T22:22:41.136Z,95.60
2019-02-27T22:25:07.320Z,95.50
2019-02-27T22:27:34.713Z,95.70
2019-02-27T22:30:04.921Z,95.40
2019-02-27T22:32:32.585Z,95.20
2019-02-27T22:35:02.821Z,95.40
2019-02-27T22:37:30.663Z,95.30
2019-02-27T22:39:58.086Z,95.40
2019-02-27T22:42:25.644Z,95.00
2019-02-27T22:44:53.233Z,95.10
2019-02-27T22:47:21.671Z,95.10
2019-02-27T22:49:51.088Z,94.90
2019-02-27T22:52:19.595Z,95.10
2019-02-27T22:54:47.994Z,95.10
2019-02-27T22:57:15.377Z,94.80
2019-02-27T22:59:42.912Z,94.70
2019-02-27T23:02:10.486Z,95.00
2019-02-27T23:04:38.292Z,94.60
2019-02-27T23:07:05.993Z,94.70
2019-02-27T23:09:33.534Z,94.50
2019-02-27T23:12:01.438Z,95.00
2019-02-27T23:14:28.931Z,94.70
2019-02-27T23:16:56.751Z,94.70
2019-02-27T23:19:24.362Z,94.70
2019-02-27T23:21:51.861Z,94.70
2019-02-27T23:24:19.483Z,94.90
2019-02-27T23:26:46.953Z,94.60
2019-02-27T23:29:14.585Z,94.50
2019-02-27T23:31:42.117Z,94.40
2019-02-27T23:34:10.273Z,94.40
2019-02-27T23:36:37.811Z,94.50
2019-02-27T23:39:08.747Z,94.90
2019-02-27T23:41:37.375Z,94.40
2019-02-27T23:44:05.501Z,94.20
2019-02-27T23:46:33.625Z,94.20
2019-02-27T23:49:01.182Z,94.20
2019-02-27T23:51:29.232Z,94.20
2019-02-27T23:53:58.605Z,94.20
2019-02-27T23:56:25.988Z,94.20
2019-02-27T23:58:53.490Z,94.30
